Time;durP1;ratioP1;P1;durP2;ratioP2;P2;SDS_P1;SDS_P2;PMS_P1;PMS_P2;Temp;Humidity;BMP_temperature;BMP_pressure;BME280_temperature;BME280_humidity;BME280_pressure;Samples;Min_cycle;Max_cycle;Signal;HPM_P1;HPM_P2
2022/12/20 00:02:04;;;;;;;;;;;;;;;-3.97;82.96;100898.94;5082019;28;19932;-65
2022/12/20 00:04:29;;;;;;;;;;;;;;;-4.15;82.97;100871.19;5080838;28;20076;-65
2022/12/20 00:06:55;;;;;;;;;;;;;;;-4.03;83.06;100895.03;5080768;28;19934;-65
2022/12/20 00:09:20;;;;;;;;;;;;;;;-4.05;83.15;100886.31;5082107;28;19955;-65
2022/12/20 00:11:46;;;;;;;;;;;;;;;-4.08;83.08;100884.78;5082575;28;20364;-66
2022/12/20 00:14:12;;;;;;;;;;;;;;;-4.04;83.22;100885.34;5081274;28;19928;-65
2022/12/20 00:16:39;;;;;;;;;;;;;;;-4.05;83.21;100876.47;5082231;28;19982;-65
2022/12/20 00:19:06;;;;;;;;;;;;;;;-3.99;82.89;100877.69;5073290;28;19967;-65
2022/12/20 00:21:32;;;;;;;;;;;;;;;-4.05;82.69;100883.66;5081572;28;20398;-65
2022/12/20 00:23:58;;;;;;;;;;;;;;;-4.07;82.72;100865.09;5081690;28;19928;-65
2022/12/20 00:26:25;;;;;;;;;;;;;;;-4.05;82.82;100871.13;5082521;28;19938;-66
2022/12/20 00:28:50;;;;;;;;;;;;;;;-4.01;83.26;100885.03;5055210;28;19932;-66
2022/12/20 00:31:16;;;;;;;;;;;;;;;-3.98;82.85;100876.69;5080555;28;20014;-66
2022/12/20 00:33:45;;;;;;;;;;;;;;;-4.01;82.93;100888.53;5055909;28;19935;-66
2022/12/20 00:36:11;;;;;;;;;;;;;;;-4.05;82.76;100871.13;5081932;28;20451;-66
2022/12/20 00:38:37;;;;;;;;;;;;;;;-4.01;83.19;100875.16;5061031;28;20401;-66
2022/12/20 00:41:03;;;;;;;;;;;;;;;-3.93;83.34;100869.06;5081040;28;19932;-66
2022/12/20 00:43:29;;;;;;;;;;;;;;;-3.89;83.02;100858.91;5065589;28;20323;-65
2022/12/20 00:45:55;;;;;;;;;;;;;;;-3.96;82.82;100850.66;5082790;28;20014;-66
2022/12/20 00:48:21;;;;;;;;;;;;;;;-3.97;83.20;100850.81;5062529;28;20022;-65
2022/12/20 00:50:48;;;;;;;;;;;;;;;-3.96;83.15;100850.66;5072283;28;19928;-66
2022/12/20 00:53:14;;;;;;;;;;;;;;;-3.93;83.15;100844.19;5080612;28;19928;-65
2022/12/20 00:55:40;;;;;;;;;;;;;;;-3.96;82.85;100847.16;5061287;28;19934;-65
2022/12/20 00:58:06;;;;;;;;;;;;;;;-3.99;83.17;100829.59;5082831;28;19974;-65
2022/12/20 01:00:32;;;;;;;;;;;;;;;-3.97;83.01;100824.09;5081338;28;19932;-65
2022/12/20 01:02:58;;;;;;;;;;;;;;;-4.01;82.87;100811.03;5051103;28;19928;-66
2022/12/20 01:05:23;;;;;;;;;;;;;;;-4.01;82.99;100804.84;5085381;28;19928;-65
2022/12/20 01:07:50;;;;;;;;;;;;;;;-4.07;82.31;100814.31;5086955;28;19971;-64
2022/12/20 01:10:17;;;;;;;;;;;;;;;-4.19;82.39;100807.53;5066805;28;19973;-65
2022/12/20 01:12:43;;;;;;;;;;;;;;;-4.27;82.44;100811.81;5076225;28;19931;-65
2022/12/20 01:15:09;;;;;;;;;;;;;;;-4.31;82.51;100807.75;5066222;28;19959;-66
2022/12/20 01:17:35;;;;;;;;;;;;;;;-4.35;82.42;100810.91;5085732;28;19928;-65
2022/12/20 01:20:01;;;;;;;;;;;;;;;-4.46;82.15;100820.81;5085024;28;19935;-65
2022/12/20 01:22:27;;;;;;;;;;;;;;;-4.54;82.58;100838.56;5068885;28;19928;-65
2022/12/20 01:24:54;;;;;;;;;;;;;;;-4.54;82.96;100827.88;5054823;28;20363;-65
2022/12/20 01:27:19;;;;;;;;;;;;;;;-4.49;82.98;100805.09;5087680;28;19956;-65
2022/12/20 01:29:45;;;;;;;;;;;;;;;-4.53;82.79;100814.38;5086151;28;20381;-65
2022/12/20 01:32:11;;;;;;;;;;;;;;;-4.45;83.30;100805.59;5086032;28;19935;-65
2022/12/20 01:34:36;;;;;;;;;;;;;;;-4.35;83.07;100795.69;5058210;28;19974;-66
2022/12/20 01:37:02;;;;;;;;;;;;;;;-4.25;83.16;100800.97;5085660;28;19928;-66
2022/12/20 01:39:28;;;;;;;;;;;;;;;-4.27;82.70;100802.94;5069447;28;19928;-65
2022/12/20 01:41:55;;;;;;;;;;;;;;;-4.43;82.38;100809.81;5068429;28;19928;-65
2022/12/20 01:44:40;;;;;;;;;;;;;;;-4.51;83.05;100815.09;5062071;28;19928;-65
2022/12/20 01:47:06;;;;;;;;;;;;;;;-4.53;83.40;100808.22;5057220;28;19932;-65
2022/12/20 01:49:34;;;;;;;;;;;;;;;-4.59;83.24;100801.63;5045611;28;19937;-65
2022/12/20 01:52:03;;;;;;;;;;;;;;;-4.68;83.41;100802.53;5047306;28;19940;-65
2022/12/20 01:54:31;;;;;;;;;;;;;;;-4.68;83.48;100802.53;5042711;28;20404;-65
2022/12/20 01:56:59;;;;;;;;;;;;;;;-4.64;83.79;100791.41;5043972;28;19959;-66
2022/12/20 01:59:26;;;;;;;;;;;;;;;-4.63;83.17;100813.63;5044925;28;19929;-66
2022/12/20 02:01:52;;;;;;;;;;;;;;;-4.79;83.06;100804.44;5045743;28;20311;-65
2022/12/20 02:04:18;;;;;;;;;;;;;;;-4.86;83.56;100790.84;5047382;28;19933;-65
2022/12/20 02:06:43;;;;;;;;;;;;;;;-4.91;83.43;100789.59;5046558;28;19940;-65
2022/12/20 02:09:09;;;;;;;;;;;;;;;-4.88;83.78;100799.97;5045438;28;19929;-65
2022/12/20 02:12:03;;;;;;;;;;;;;;;-4.86;83.95;100784.66;5044715;28;19929;-66
2022/12/20 02:14:42;;;;;;;;;;;;;;;-4.92;83.33;100786.09;5043855;28;20030;-65
2022/12/20 02:17:11;;;;;;;;;;;;;;;-5.03;83.18;100778.31;5037512;28;19948;-65
2022/12/20 02:19:52;;;;;;;;;;;;;;;-5.12;83.05;100780.03;5044190;28;19929;-65
2022/12/20 02:22:23;;;;;;;;;;;;;;;-5.11;83.14;100773.72;5039250;28;20011;-65
2022/12/20 02:25:01;;;;;;;;;;;;;;;-5.16;83.09;100770.63;5043528;28;20392;-65
2022/12/20 02:27:37;;;;;;;;;;;;;;;-5.18;83.44;100767.28;5043030;28;19975;-65
2022/12/20 02:30:06;;;;;;;;;;;;;;;-5.25;83.18;100763.53;5035354;28;20055;-65
2022/12/20 02:32:36;;;;;;;;;;;;;;;-5.29;82.38;100765.66;5043773;28;19968;-64
2022/12/20 02:35:04;;;;;;;;;;;;;;;-5.32;82.33;100760.59;5043548;28;19929;-66
2022/12/20 02:37:30;;;;;;;;;;;;;;;-5.29;82.46;100762.97;5043181;28;19971;-65
2022/12/20 02:39:56;;;;;;;;;;;;;;;-5.33;81.59;100765.09;5044056;28;19929;-66
2022/12/20 02:42:24;;;;;;;;;;;;;;;-5.39;81.82;100748.84;5043929;28;19928;-65
2022/12/20 02:47:39;;;;;;;;;;;;;;;-5.38;82.26;100751.38;5054471;28;19929;-65
2022/12/20 02:50:06;;;;;;;;;;;;;;;-5.37;82.26;100746.88;5078711;28;19928;-66
2022/12/20 02:52:32;;;;;;;;;;;;;;;-5.36;82.16;100746.72;5066887;28;19931;-66
2022/12/20 02:54:59;;;;;;;;;;;;;;;-5.38;81.98;100739.88;5085463;28;19932;-67
2022/12/20 02:57:28;;;;;;;;;;;;;;;-5.44;82.55;100743.97;5048314;28;19928;-66
2022/12/20 02:59:57;;;;;;;;;;;;;;;-5.55;81.75;100737.81;5063292;28;20217;-66
2022/12/20 03:02:23;;;;;;;;;;;;;;;-5.65;81.38;100747.66;5084760;28;20382;-66
2022/12/20 03:04:51;;;;;;;;;;;;;;;-5.70;81.57;100725.97;5083640;28;19928;-66
2022/12/20 03:07:17;;;;;;;;;;;;;;;-5.75;81.34;100737.03;5065770;28;19928;-65
2022/12/20 03:09:43;;;;;;;;;;;;;;;-5.82;81.32;100717.31;5055890;28;19939;-66
2022/12/20 03:12:12;;;;;;;;;;;;;;;-5.86;80.49;100726.56;5066057;28;20023;-65
2022/12/20 03:14:38;;;;;;;;;;;;;;;-5.94;80.13;100713.94;5065607;28;20002;-65
2022/12/20 03:17:07;;;;;;;;;;;;;;;-5.96;80.56;100710.59;5064366;28;20182;-66
2022/12/20 03:19:32;;;;;;;;;;;;;;;-5.96;80.17;100701.78;5083744;28;20056;-66
2022/12/20 03:21:59;;;;;;;;;;;;;;;-5.97;80.27;100703.59;5047436;28;20528;-65
2022/12/20 03:24:25;;;;;;;;;;;;;;;-5.96;80.21;100689.28;5082737;28;19928;-65
2022/12/20 03:26:52;;;;;;;;;;;;;;;-5.93;80.17;100690.84;5082612;28;20325;-65
2022/12/20 03:29:20;;;;;;;;;;;;;;;-5.94;79.81;100689.16;5043234;28;20394;-65
2022/12/20 03:31:47;;;;;;;;;;;;;;;-5.98;79.65;100683.28;5068749;28;19928;-65
2022/12/20 03:34:13;;;;;;;;;;;;;;;-6.04;78.85;100682.06;5065918;28;19981;-66
2022/12/20 03:36:38;;;;;;;;;;;;;;;-6.08;78.44;100685.16;5065995;28;20869;-65
2022/12/20 03:39:06;;;;;;;;;;;;;;;-6.13;78.31;100669.63;5058434;28;19928;-65
2022/12/20 03:41:36;;;;;;;;;;;;;;;-6.18;77.89;100677.19;5063382;28;20790;-65
2022/12/20 03:44:02;;;;;;;;;;;;;;;-6.24;77.86;100678.63;5065360;28;19936;-65
2022/12/20 03:46:28;;;;;;;;;;;;;;;-6.23;77.53;100674.13;5063737;28;19981;-65
2022/12/20 03:48:54;;;;;;;;;;;;;;;-6.23;77.47;100674.13;5064237;28;19959;-65
2022/12/20 03:51:20;;;;;;;;;;;;;;;-6.25;77.18;100662.78;5059406;28;19933;-65
2022/12/20 03:53:46;;;;;;;;;;;;;;;-6.23;77.74;100659.00;5080669;28;19974;-65
2022/12/20 03:56:14;;;;;;;;;;;;;;;-6.22;77.74;100659.81;5065409;28;19935;-65
2022/12/20 03:58:41;;;;;;;;;;;;;;;-6.29;77.73;100656.88;5063381;28;19968;-64
2022/12/20 04:01:17;;;;;;;;;;;;;;;-6.36;77.59;100658.47;5032831;28;20399;-65
2022/12/20 04:03:44;;;;;;;;;;;;;;;-6.48;77.06;100657.75;5030891;28;19939;-65
2022/12/20 04:06:10;;;;;;;;;;;;;;;-6.55;76.50;100645.03;5084755;28;19934;-65
2022/12/20 04:08:36;;;;;;;;;;;;;;;-6.60;76.11;100644.63;5066382;28;20018;-65
2022/12/20 04:11:18;;;;;;;;;;;;;;;-6.59;75.77;100638.31;5063674;28;19932;-65
2022/12/20 04:14:00;;;;;;;;;;;;;;;-6.60;75.58;100626.00;5066127;28;19932;-65
2022/12/20 04:16:27;;;;;;;;;;;;;;;-6.57;75.75;100628.38;5047248;28;19957;-65
2022/12/20 04:18:54;;;;;;;;;;;;;;;-6.53;75.51;100628.94;5065094;28;19950;-65
2022/12/20 04:21:21;;;;;;;;;;;;;;;-6.47;74.95;100619.53;5066090;28;19932;-65
2022/12/20 04:23:47;;;;;;;;;;;;;;;-6.47;74.53;100619.53;5081684;28;19933;-65
2022/12/20 04:26:12;;;;;;;;;;;;;;;-6.50;74.21;100609.16;5049893;28;20033;-65
2022/12/20 04:28:38;;;;;;;;;;;;;;;-6.49;74.42;100608.16;5063383;28;20379;-65
2022/12/20 04:31:09;;;;;;;;;;;;;;;-6.45;74.39;100612.25;5047809;28;20427;-65
2022/12/20 04:33:36;;;;;;;;;;;;;;;-6.48;73.75;100613.38;5056656;28;19928;-65
2022/12/20 04:36:02;;;;;;;;;;;;;;;-6.49;73.75;100616.16;5082301;28;19974;-65
2022/12/20 04:38:28;;;;;;;;;;;;;;;-6.52;73.48;100608.47;5067819;28;19934;-65
2022/12/20 04:40:54;;;;;;;;;;;;;;;-6.55;72.92;100605.09;5070120;28;19928;-65
2022/12/20 04:43:22;;;;;;;;;;;;;;;-6.60;72.37;100604.72;5067103;28;19928;-65
2022/12/20 04:45:48;;;;;;;;;;;;;;;-6.61;72.49;100613.69;5067710;28;19935;-66
2022/12/20 04:48:16;;;;;;;;;;;;;;;-6.64;72.00;100602.47;5089204;28;20392;-65
2022/12/20 04:50:41;;;;;;;;;;;;;;;-6.70;71.89;100618.03;5091029;28;19928;-65
2022/12/20 04:55:52;;;;;;;;;;;;;;;-6.78;71.91;100614.41;5062776;28;19928;-66
2022/12/20 04:58:18;;;;;;;;;;;;;;;-6.84;71.35;100624.59;5059857;28;19928;-64
2022/12/20 05:00:44;;;;;;;;;;;;;;;-6.93;71.44;100613.97;5051392;28;19935;-63
2022/12/20 05:03:24;;;;;;;;;;;;;;;-7.01;71.66;100601.38;5059751;28;19928;-63
2022/12/20 05:05:50;;;;;;;;;;;;;;;-7.03;71.66;100613.97;5048748;28;19932;-64
2022/12/20 05:08:17;;;;;;;;;;;;;;;-7.03;71.86;100611.31;5074965;28;19967;-63
2022/12/20 05:10:43;;;;;;;;;;;;;;;-7.02;71.84;100610.34;5045287;28;19932;-64
2022/12/20 05:13:09;;;;;;;;;;;;;;;-7.04;71.57;100605.13;5069260;28;19947;-63
2022/12/20 05:15:41;;;;;;;;;;;;;;;-7.05;72.08;100600.81;5068812;28;20009;-64
2022/12/20 05:18:07;;;;;;;;;;;;;;;-7.04;71.77;100606.97;5084893;28;19928;-64
2022/12/20 05:26:15;;;;;;;;;;;;;;;-7.03;71.21;100590.88;5068207;28;20027;-64
2022/12/20 05:26:23;;;;;;;;;;;;;;;-7.06;70.46;100591.16;5070220;28;20042;-65
2022/12/20 05:28:50;;;;;;;;;;;;;;;-7.05;69.88;100579.53;5068647;28;19932;-65
2022/12/20 05:31:16;;;;;;;;;;;;;;;-7.05;69.76;100582.19;5041770;28;20291;-65
2022/12/20 05:33:42;;;;;;;;;;;;;;;-7.06;69.28;100577.84;5065978;28;19935;-65
2022/12/20 05:36:09;;;;;;;;;;;;;;;-7.03;69.24;100582.06;5046241;28;19935;-65
2022/12/20 05:38:36;;;;;;;;;;;;;;;-7.02;69.07;100573.09;5049788;28;19956;-63
2022/12/20 05:41:08;;;;;;;;;;;;;;;-7.01;68.99;100572.97;5065565;28;19931;-65
2022/12/20 05:43:33;;;;;;;;;;;;;;;-7.01;68.69;100565.00;5066294;28;20288;-66
2022/12/20 05:45:59;;;;;;;;;;;;;;;-7.01;68.57;100566.81;5049538;28;19939;-63
2022/12/20 05:48:33;;;;;;;;;;;;;;;-6.99;68.94;100544.41;5043477;28;20350;-64
2022/12/20 05:50:59;;;;;;;;;;;;;;;-6.99;68.39;100544.41;5058934;28;19939;-62
2022/12/20 05:53:29;;;;;;;;;;;;;;;-7.03;68.25;100553.63;5042829;28;19929;-63
2022/12/20 05:56:00;;;;;;;;;;;;;;;-7.04;68.56;100541.31;5071251;28;20075;-65
2022/12/20 05:58:30;;;;;;;;;;;;;;;-7.05;68.90;100541.47;5039734;28;19928;-65
2022/12/20 06:00:59;;;;;;;;;;;;;;;-7.03;69.54;100539.53;5045518;28;19983;-65
2022/12/20 06:03:25;;;;;;;;;;;;;;;-7.01;69.80;100546.38;5044339;28;20049;-65
2022/12/20 06:05:51;;;;;;;;;;;;;;;-6.96;70.10;100531.81;5025559;28;19928;-65
2022/12/20 06:08:23;;;;;;;;;;;;;;;-6.86;70.13;100530.81;5047855;28;19935;-65
2022/12/20 06:10:52;;;;;;;;;;;;;;;-6.82;70.34;100534.03;5041686;28;20373;-63
2022/12/20 06:13:19;;;;;;;;;;;;;;;-6.80;70.50;100531.22;5043276;28;20019;-64
2022/12/20 06:15:47;;;;;;;;;;;;;;;-6.82;70.17;100525.19;5029335;28;19935;-63
2022/12/20 06:18:13;;;;;;;;;;;;;;;-6.86;70.21;100522.00;5046494;28;20031;-63
2022/12/20 06:20:38;;;;;;;;;;;;;;;-6.85;69.91;100521.84;5052106;28;19975;-63
2022/12/20 06:23:06;;;;;;;;;;;;;;;-6.86;69.45;100535.31;5074144;28;20031;-63
2022/12/20 06:25:39;;;;;;;;;;;;;;;-6.87;68.91;100522.97;5043143;28;19975;-63
2022/12/20 06:28:06;;;;;;;;;;;;;;;-6.92;68.99;100530.53;5044021;28;19936;-63
2022/12/20 06:30:32;;;;;;;;;;;;;;;-6.93;68.70;100527.06;5045016;28;19928;-63
2022/12/20 06:33:06;;;;;;;;;;;;;;;-6.90;68.11;100533.91;5046433;28;19928;-65
2022/12/20 06:35:32;;;;;;;;;;;;;;;-6.98;68.12;100514.19;5047411;28;20331;-65
2022/12/20 06:37:58;;;;;;;;;;;;;;;-6.85;68.26;100521.84;5043548;28;19936;-65
2022/12/20 06:40:25;;;;;;;;;;;;;;;-6.83;68.24;100521.72;5043468;28;19929;-65
2022/12/20 06:42:50;;;;;;;;;;;;;;;-6.81;67.78;100508.25;5043317;28;19936;-65
2022/12/20 06:45:20;;;;;;;;;;;;;;;-6.74;68.22;100507.53;5066869;28;19928;-65
2022/12/20 06:47:46;;;;;;;;;;;;;;;-6.72;68.03;100504.75;5067561;28;19935;-64
2022/12/20 06:50:12;;;;;;;;;;;;;;;-6.73;68.11;100498.56;4713662;28;10000334;-64
2022/12/20 06:52:37;;;;;;;;;;;;;;;-6.74;68.27;100485.44;5064246;28;19938;-64
2022/12/20 06:55:04;;;;;;;;;;;;;;;-6.80;68.50;100486.84;5064888;28;20453;-64
2022/12/20 06:57:33;;;;;;;;;;;;;;;-6.88;68.54;100492.03;5047988;28;19936;-64
2022/12/20 07:00:00;;;;;;;;;;;;;;;-6.98;68.51;100492.06;5078115;28;19993;-64
2022/12/20 07:02:27;;;;;;;;;;;;;;;-7.05;68.51;100475.84;5080094;28;20256;-64
2022/12/20 07:04:53;;;;;;;;;;;;;;;-7.09;69.03;100476.28;5076963;28;19954;-64
2022/12/20 07:07:19;;;;;;;;;;;;;;;-7.07;69.00;100475.16;5074622;28;20344;-64
2022/12/20 07:09:44;;;;;;;;;;;;;;;-7.11;68.71;100473.75;5080482;28;19928;-66
2022/12/20 07:12:10;;;;;;;;;;;;;;;-7.14;69.34;100463.41;5078263;28;20640;-65
2022/12/20 07:14:36;;;;;;;;;;;;;;;-7.13;69.28;100452.63;5064314;28;19928;-66
2022/12/20 07:17:02;;;;;;;;;;;;;;;-7.16;69.07;100450.25;5077844;28;19928;-66
2022/12/20 07:19:29;;;;;;;;;;;;;;;-7.20;68.84;100450.69;5082014;28;19928;-66
2022/12/20 07:21:55;;;;;;;;;;;;;;;-7.22;69.12;100426.06;5079411;28;19997;-66
2022/12/20 07:24:21;;;;;;;;;;;;;;;-7.32;68.97;100426.94;5061421;28;19931;-67
2022/12/20 07:26:47;;;;;;;;;;;;;;;-7.40;68.87;100437.44;5078423;28;20361;-66
2022/12/20 07:29:13;;;;;;;;;;;;;;;-7.46;69.02;100424.72;5076291;28;19932;-66
2022/12/20 07:31:38;;;;;;;;;;;;;;;-7.49;69.42;100419.66;5062029;28;19934;-66
2022/12/20 07:34:04;;;;;;;;;;;;;;;-7.46;69.02;100420.22;5080897;28;19928;-65
2022/12/20 07:36:31;;;;;;;;;;;;;;;-7.50;68.61;100405.56;5084869;28;19935;-66
2022/12/20 07:38:57;;;;;;;;;;;;;;;-7.53;68.95;100400.53;5083403;28;19935;-66
2022/12/20 07:41:24;;;;;;;;;;;;;;;-7.52;68.25;100396.03;5083643;28;19932;-66
2022/12/20 07:43:50;;;;;;;;;;;;;;;-7.53;68.52;100381.09;5065714;28;19932;-65
2022/12/20 07:46:16;;;;;;;;;;;;;;;-7.50;68.76;100378.13;5084729;28;19928;-65
2022/12/20 07:48:43;;;;;;;;;;;;;;;-7.46;68.99;100375.06;5083589;28;20263;-65
2022/12/20 07:51:10;;;;;;;;;;;;;;;-7.41;68.83;100375.47;5082199;28;19928;-65
2022/12/20 07:53:38;;;;;;;;;;;;;;;-7.35;68.51;100371.38;5085070;28;20306;-66
2022/12/20 07:56:06;;;;;;;;;;;;;;;-7.32;68.27;100357.00;5048913;28;19934;-65
2022/12/20 07:58:33;;;;;;;;;;;;;;;-7.32;68.70;100360.50;5084116;28;20349;-65
2022/12/20 08:00:58;;;;;;;;;;;;;;;-7.29;68.62;100346.91;5083678;28;19928;-65
2022/12/20 08:03:27;;;;;;;;;;;;;;;-7.28;68.30;100342.41;5067013;28;19939;-66
2022/12/20 08:05:55;;;;;;;;;;;;;;;-7.24;68.09;100342.97;5084821;28;19971;-65
2022/12/20 08:08:21;;;;;;;;;;;;;;;-7.21;67.80;100335.56;5084402;28;20470;-65
2022/12/20 08:10:48;;;;;;;;;;;;;;;-7.19;67.16;100336.25;5082024;28;20034;-65
2022/12/20 08:13:14;;;;;;;;;;;;;;;-7.14;66.79;100351.75;5087171;28;20050;-65
2022/12/20 08:15:40;;;;;;;;;;;;;;;-7.20;66.45;100318.63;5062700;28;20360;-65
2022/12/20 08:18:06;;;;;;;;;;;;;;;-7.23;66.43;100320.72;5083955;28;19989;-65
2022/12/20 08:20:31;;;;;;;;;;;;;;;-7.22;66.40;100303.78;5081442;28;19928;-65
2022/12/20 08:22:57;;;;;;;;;;;;;;;-7.17;66.16;100306.88;5081027;28;19935;-66
2022/12/20 08:25:23;;;;;;;;;;;;;;;-6.78;65.72;100311.16;5080938;28;20377;-66
2022/12/20 08:27:50;;;;;;;;;;;;;;;-5.52;64.38;100306.72;5079881;28;19951;-65
2022/12/20 08:30:16;;;;;;;;;;;;;;;-4.60;59.46;100303.47;5080829;28;19928;-65
2022/12/20 08:32:42;;;;;;;;;;;;;;;-4.25;57.75;100296.16;5063968;28;19928;-66
2022/12/20 08:35:08;;;;;;;;;;;;;;;-3.86;56.94;100286.66;5082412;28;20351;-66
2022/12/20 08:37:34;;;;;;;;;;;;;;;-3.44;55.79;100288.28;5082964;28;19951;-66
2022/12/20 08:39:59;;;;;;;;;;;;;;;-3.34;53.51;100290.75;5084073;28;19932;-65
2022/12/20 08:42:25;;;;;;;;;;;;;;;-3.23;54.07;100283.38;5085471;28;20379;-65
2022/12/20 08:44:52;;;;;;;;;;;;;;;-3.03;53.49;100289.97;5083907;28;19928;-66
2022/12/20 08:47:18;;;;;;;;;;;;;;;-2.68;52.37;100278.97;5085136;28;19951;-65
2022/12/20 08:49:43;;;;;;;;;;;;;;;-2.45;50.56;100284.34;5062595;28;19971;-66
2022/12/20 08:52:09;;;;;;;;;;;;;;;-2.40;51.77;100274.94;5064481;28;20334;-66
2022/12/20 08:54:35;;;;;;;;;;;;;;;-2.01;50.90;100266.75;5062240;28;19939;-66
2022/12/20 08:57:01;;;;;;;;;;;;;;;-1.94;49.71;100269.56;5083818;28;19936;-66
2022/12/20 08:59:27;;;;;;;;;;;;;;;-1.85;49.81;100262.28;5084419;28;20306;-66
2022/12/20 09:01:54;;;;;;;;;;;;;;;-1.87;49.97;100249.06;5084509;28;19928;-66
2022/12/20 09:04:19;;;;;;;;;;;;;;;-1.68;49.84;100260.28;5066600;28;19928;-66
2022/12/20 09:06:45;;;;;;;;;;;;;;;-1.40;48.85;100253.44;5085460;28;19935;-66
2022/12/20 09:09:29;;;;;;;;;;;;;;;-1.20;48.52;100243.00;5080613;28;19928;-66
2022/12/20 09:11:54;;;;;;;;;;;;;;;-1.29;48.81;100232.34;5045097;28;19928;-66
2022/12/20 09:14:20;;;;;;;;;;;;;;;-1.08;48.21;100227.25;5082080;28;19973;-66
2022/12/20 09:16:46;;;;;;;;;;;;;;;-0.89;48.36;100217.78;5084513;28;20034;-66
2022/12/20 09:19:15;;;;;;;;;;;;;;;-0.45;47.92;100208.72;5046132;28;19928;-66
2022/12/20 09:21:41;;;;;;;;;;;;;;;-0.34;46.99;100191.25;5081670;28;20402;-66
2022/12/20 09:24:07;;;;;;;;;;;;;;;-0.22;46.71;100191.56;5082851;28;19928;-66
2022/12/20 09:26:34;;;;;;;;;;;;;;;-0.23;46.72;100186.38;5089611;28;19928;-66
2022/12/20 09:29:00;;;;;;;;;;;;;;;0.05;45.66;100186.38;5084593;28;20413;-66
2022/12/20 09:31:26;;;;;;;;;;;;;;;0.06;45.12;100177.28;5069105;28;20314;-66
2022/12/20 09:33:52;;;;;;;;;;;;;;;-0.01;44.82;100171.88;5086854;28;19934;-67
2022/12/20 09:36:20;;;;;;;;;;;;;;;0.09;46.08;100181.47;5087144;28;20023;-66
2022/12/20 09:38:47;;;;;;;;;;;;;;;0.20;44.75;100159.38;5088103;28;19932;-66
2022/12/20 09:41:19;;;;;;;;;;;;;;;0.18;44.14;100163.31;5067135;28;19951;-66
2022/12/20 09:43:45;;;;;;;;;;;;;;;0.21;44.96;100157.53;5085316;28;19927;-66
2022/12/20 09:46:13;;;;;;;;;;;;;;;0.41;44.68;100154.97;5059508;28;20146;-66
2022/12/20 09:48:39;;;;;;;;;;;;;;;1.00;45.11;100152.69;5078053;28;19959;-66
2022/12/20 09:51:11;;;;;;;;;;;;;;;0.90;44.20;100144.19;5086460;28;20040;-66
2022/12/20 09:53:44;;;;;;;;;;;;;;;0.64;44.04;100134.97;5068799;28;20022;-67
2022/12/20 09:56:14;;;;;;;;;;;;;;;0.68;43.96;100120.91;5088622;28;20137;-67
2022/12/20 09:58:50;;;;;;;;;;;;;;;0.84;43.94;100133.16;5086990;28;19928;-66
2022/12/20 10:01:16;;;;;;;;;;;;;;;1.25;43.97;100117.09;5033989;28;19977;-67
2022/12/20 10:03:42;;;;;;;;;;;;;;;1.38;41.74;100109.03;5066593;28;19928;-66
2022/12/20 10:06:10;;;;;;;;;;;;;;;1.44;42.74;100104.69;5067255;28;19935;-65
2022/12/20 10:08:42;;;;;;;;;;;;;;;1.19;42.68;100105.28;5086259;28;19953;-65
2022/12/20 10:11:12;;;;;;;;;;;;;;;0.41;44.18;100098.47;5084977;28;19927;-65
2022/12/20 10:13:46;;;;;;;;;;;;;;;-0.33;45.99;100098.00;5082249;28;20027;-65
2022/12/20 10:16:18;;;;;;;;;;;;;;;-0.78;45.15;100088.38;5068043;28;19928;-65
2022/12/20 10:18:51;;;;;;;;;;;;;;;-1.22;46.80;100094.75;5085242;28;20017;-65
2022/12/20 10:21:19;;;;;;;;;;;;;;;-1.95;48.51;100074.06;5086975;28;20015;-64
2022/12/20 10:23:55;;;;;;;;;;;;;;;-2.42;51.01;100072.38;5088097;28;20303;-64
2022/12/20 10:26:21;;;;;;;;;;;;;;;-3.13;51.86;100068.13;5084310;28;20001;-64
2022/12/20 10:28:47;;;;;;;;;;;;;;;-3.71;53.06;100076.47;5088311;28;19974;-64
2022/12/20 10:31:14;;;;;;;;;;;;;;;-3.97;53.70;100065.25;5066754;28;19936;-65
2022/12/20 10:33:41;;;;;;;;;;;;;;;-3.20;54.02;100059.16;5087048;28;19963;-64
2022/12/20 10:36:17;;;;;;;;;;;;;;;-1.84;51.80;100054.00;5083453;28;19959;-65
2022/12/20 10:38:43;;;;;;;;;;;;;;;-0.57;48.85;100043.69;5087793;28;19928;-64
2022/12/20 10:41:13;;;;;;;;;;;;;;;0.86;46.59;100036.06;5065654;28;19934;-65
2022/12/20 10:43:42;;;;;;;;;;;;;;;1.78;44.60;100032.69;5086160;28;20319;-64
2022/12/20 10:46:07;;;;;;;;;;;;;;;2.39;43.28;100038.72;5084660;28;19928;-65
2022/12/20 10:48:34;;;;;;;;;;;;;;;2.66;41.74;100037.75;5085839;28;19928;-65
2022/12/20 10:51:00;;;;;;;;;;;;;;;2.67;40.52;100028.59;5065038;28;19932;-65
2022/12/20 10:53:27;;;;;;;;;;;;;;;1.63;40.39;100016.75;5085616;28;19928;-64
2022/12/20 10:55:54;;;;;;;;;;;;;;;-0.33;45.25;100020.06;5051209;28;19928;-65
2022/12/20 10:58:30;;;;;;;;;;;;;;;-1.35;47.58;100013.09;5082714;28;19928;-65
2022/12/20 11:01:03;;;;;;;;;;;;;;;-1.82;48.89;100009.88;5085213;28;19967;-64
2022/12/20 11:03:30;;;;;;;;;;;;;;;-1.87;49.82;100015.00;5086636;28;20466;-64
2022/12/20 11:05:58;;;;;;;;;;;;;;;-2.16;49.91;100003.28;5085175;28;20200;-65
2022/12/20 11:08:25;;;;;;;;;;;;;;;-2.21;50.82;100005.69;5083206;28;19929;-64
2022/12/20 11:11:08;;;;;;;;;;;;;;;-2.00;51.00;100002.25;5085544;28;19932;-65
2022/12/20 11:13:36;;;;;;;;;;;;;;;-2.03;50.25;100005.28;5082191;28;19928;-64
2022/12/20 11:16:01;;;;;;;;;;;;;;;-2.20;51.09;99999.31;5084491;28;20401;-65
2022/12/20 11:18:32;;;;;;;;;;;;;;;-2.55;51.69;99985.66;5080033;28;19928;-64
2022/12/20 11:21:03;;;;;;;;;;;;;;;-2.92;52.67;99982.84;5082213;28;19928;-65
2022/12/20 11:23:35;;;;;;;;;;;;;;;-3.18;53.71;99987.59;5083742;28;20456;-66
2022/12/20 11:26:08;;;;;;;;;;;;;;;-2.71;52.46;100000.88;5083118;28;19932;-64
2022/12/20 11:28:44;;;;;;;;;;;;;;;-1.73;50.05;99999.88;5079052;28;20228;-65
2022/12/20 11:31:14;;;;;;;;;;;;;;;-0.57;48.01;99998.03;5080674;28;19934;-65
2022/12/20 11:33:57;;;;;;;;;;;;;;;-0.35;45.55;99995.25;5089893;28;19981;-65
2022/12/20 11:36:28;;;;;;;;;;;;;;;-0.57;46.37;99993.47;5081939;28;20457;-65
2022/12/20 11:38:58;;;;;;;;;;;;;;;-1.47;47.01;99991.31;5085215;28;19935;-65
2022/12/20 11:41:28;;;;;;;;;;;;;;;-2.59;49.89;99988.69;5083620;28;19989;-65
2022/12/20 11:44:00;;;;;;;;;;;;;;;-3.49;51.68;99988.50;5066690;28;19936;-65
2022/12/20 11:46:32;;;;;;;;;;;;;;;-3.97;53.38;99990.47;5067841;28;19932;-64
2022/12/20 11:49:08;;;;;;;;;;;;;;;-4.41;54.42;99993.44;5084615;28;19928;-65
2022/12/20 11:51:41;;;;;;;;;;;;;;;-4.67;55.82;99998.22;5082938;28;19928;-66
2022/12/20 11:54:09;;;;;;;;;;;;;;;-4.70;56.90;99994.03;5083407;28;19950;-66
2022/12/20 11:56:36;;;;;;;;;;;;;;;-4.64;56.13;100006.69;5073569;28;19928;-66
2022/12/20 11:59:06;;;;;;;;;;;;;;;-4.86;57.22;99990.41;5073596;28;19929;-66
2022/12/20 12:01:36;;;;;;;;;;;;;;;-5.09;57.47;99986.72;5072716;28;19932;-66
2022/12/20 12:04:07;;;;;;;;;;;;;;;-5.48;58.42;99986.41;5078077;28;20015;-67
2022/12/20 12:06:36;;;;;;;;;;;;;;;-5.66;59.99;99977.72;5063061;28;19935;-66
2022/12/20 12:09:07;;;;;;;;;;;;;;;-5.82;59.99;99976.72;5082791;28;19928;-64
2022/12/20 12:11:34;;;;;;;;;;;;;;;-5.98;60.34;99978.34;4708517;28;10000333;-65
2022/12/20 12:14:02;;;;;;;;;;;;;;;-6.14;60.50;99976.47;5041742;28;19981;-64
2022/12/20 12:16:33;;;;;;;;;;;;;;;-6.28;61.28;99966.44;5073477;28;20032;-64
2022/12/20 12:19:00;;;;;;;;;;;;;;;-6.40;61.95;99968.56;5077193;28;20045;-64
2022/12/20 12:21:27;;;;;;;;;;;;;;;-6.55;62.19;99974.47;5080152;28;20351;-65
2022/12/20 12:23:59;;;;;;;;;;;;;;;-6.68;62.49;99968.75;5080939;28;20405;-65
2022/12/20 12:26:26;;;;;;;;;;;;;;;-6.76;62.84;99955.41;5080252;28;20382;-64
2022/12/20 12:28:53;;;;;;;;;;;;;;;-6.71;63.33;99967.25;5080523;28;19928;-64
2022/12/20 12:31:22;;;;;;;;;;;;;;;-6.77;63.67;99965.22;5082183;28;20264;-64
2022/12/20 12:33:57;;;;;;;;;;;;;;;-6.77;63.75;99967.88;5064428;28;19981;-64
2022/12/20 12:36:33;;;;;;;;;;;;;;;-6.88;64.14;99970.78;5082218;28;19928;-66
2022/12/20 12:39:13;;;;;;;;;;;;;;;-6.89;64.65;99971.78;5062398;28;19932;-64
2022/12/20 12:41:48;;;;;;;;;;;;;;;-6.98;64.86;99965.56;5078220;28;20082;-66
2022/12/20 12:44:27;;;;;;;;;;;;;;;-6.95;64.96;99967.09;5077897;28;19932;-66
2022/12/20 12:46:57;;;;;;;;;;;;;;;-7.04;65.34;99964.38;5072759;28;20032;-66
2022/12/20 12:49:26;;;;;;;;;;;;;;;-7.16;65.64;99952.34;5064158;28;20426;-66
2022/12/20 12:51:54;;;;;;;;;;;;;;;-7.05;65.89;99968.03;5081294;28;20438;-66